Impacts TAF Board
For situational awareness. Not to be used for flight planning purposes.
IDs:

KMEM - Memphis Intl, TN, US

Issued at 1127 UTC 16 Feb 2019
Updated at 1618 UTC 16 Feb 2019
Potential Impact None Slight Moderate High
Time<<17/17Z 17/18Z 17/19Z 17/20Z 17/21Z 17/22Z 17/23Z 18/00Z 18/01Z 18/02Z 18/03Z 18/04Z 18/05Z
Type PRVL
VIS >6
CIG 25
Cover BKN
FltCat MVFR
WX --
WDir 280
WSpd 9
WGst --
Raw TAF
KMEM 161127Z 1612/1718 02011KT P6SM OVC012
  TEMPO 1612/1614 2SM -DZ BR OVC005
  FM161600 04010KT P6SM OVC015
  FM162100 04007KT P6SM SCT025 BKN250
  FM170200 09006KT P6SM VCSH OVC025
  FM170600 12005KT P6SM -SHRA OVC015
  FM171000 27005KT 5SM -SHRA OVC007
  FM171600 28009KT P6SM BKN025


METAR Board
Radar Display
Forecast Discussion
For situational awareness. Not to be used for flight planning purposes.